La Granja, Argentina
Current Conditions -  °F | °C
As of 11:00 PM on Thursday 20 Nov 2014 (Local Time) from SACO Reporting Station
Thunderstorm Thunderstorm  
Wind Chill: 14°   Ceiling: 3000
Heat Index: 14°   Visibility: 3mi
Dew Point: 14°   Wind: 7mph
Humidity: 100%   Direction: 230°SW
Pressure: 30.09"   Gusts: NA
Location:  31.02°S, 64.27°W
Report Text: SACO 210200Z 23006KT 5000 TSRA FEW010SCT015 BKN030 FEW035CB 14/14 Q1019
Loading
Personal Weather Stations






























Interactive Weather Map New forecast layout! Learn more

10-Day Weather Forecast

Advertisements
Track Severe Weather on mobile